Home   Weather   Moldova   Bălți   Past weeks
Flag for Moldova

Past Weather in Bălți, Moldova — Yesterday and Last 2 Weeks

Currently: 64 °F. Partly sunny. (Weather station: Iasi Airport, Moldova). See more current weather

Past Weather in Bălți — Graph

°F

Bălți Temperature Yesterday

Maximum temperature yesterday: 79 °F (at 3:30 pm)
Minimum temperature yesterday: 57 °F (at 1:30 am)
Average temperature yesterday: 69 °F

High & Low Weather Summary for the Past Weeks

 TemperatureHumidityPressure
High88 °F (Aug 5, 4:00 pm)100% (Aug 1, 1:30 am)30.18 "Hg (Aug 1, 1:30 am)
Low57 °F (Aug 11, 1:30 am)37% (Jul 28, 7:00 pm)29.80 "Hg (Aug 1, 4:30 am)
Average72 °F71%30.01 "Hg
* Reported Jul 28 8:00 am — Aug 12 8:00 am, Bălți. Weather by CustomWeather, © 2022

Note: Actual official high and low records may vary slightly from our data, if they occured in-between our weather recording intervals... More about our weather records

Bălți Weather History for the Previous 24 Hours

Scroll right to see more
 ConditionsComfort  
Time TempWeatherWind HumidityBarometerVisibility
8:00 am
Fri, Aug 12
64 °FMore clouds than sun.12 mph88%30.04 "HgN/A
7:30 am64 °FOvercast.12 mph88%30.04 "HgN/A
7:00 am64 °FMore clouds than sun.12 mph88%30.04 "HgN/A
6:30 am64 °FOvercast.10 mph88%30.04 "HgN/A
6:00 am64 °FOvercast.10 mph88%30.04 "HgN/A
5:30 am63 °FPassing clouds.10 mph88%30.04 "HgN/A
5:00 am64 °FPassing clouds.10 mph83%30.04 "HgN/A
4:30 am64 °FOvercast.8 mph88%30.04 "HgN/A
4:00 am64 °FPassing clouds.12 mph88%30.04 "HgN/A
2:30 am64 °FPassing clouds.9 mph88%30.04 "HgN/A
2:00 am64 °FPassing clouds.7 mph88%30.07 "HgN/A
1:30 am66 °FClear.9 mph83%30.07 "Hg10 mi
1:00 am66 °FClear.7 mph83%30.07 "Hg10 mi
12:30 am66 °FClear.7 mph78%30.07 "Hg10 mi
12:00 am68 °FClear.7 mph78%30.07 "Hg10 mi
11:00 pm
Thu, Aug 11
70 °FClear.9 mph69%30.07 "Hg10 mi
10:30 pm70 °FClear.8 mph69%30.07 "Hg10 mi
10:00 pm72 °FClear.9 mph65%30.07 "Hg10 mi
9:30 pm73 °FClear.8 mph57%30.04 "Hg10 mi
9:00 pm73 °FClear.7 mph53%30.04 "Hg10 mi
8:30 pm75 °FClear.9 mph44%30.01 "Hg10 mi
8:00 pm77 °FSunny.13 mph42%30.01 "Hg10 mi
7:30 pm77 °FSunny.10 mph44%30.01 "Hg10 mi
7:00 pm79 °FPassing clouds.12 mph39%30.01 "HgN/A
6:30 pm79 °FPassing clouds.10 mph39%30.01 "HgN/A
6:00 pm79 °FPassing clouds.13 mph42%30.01 "HgN/A
5:30 pm79 °FSunny.15 mph42%30.01 "Hg10 mi
4:00 pm79 °FSunny.16 mph42%30.04 "Hg10 mi
3:30 pm79 °FSunny.15 mph45%30.04 "Hg10 mi
3:00 pm77 °FScattered clouds.16 mph44%30.04 "HgN/A
2:00 pm75 °FScattered clouds.16 mph54%30.04 "HgN/A
1:30 pm73 °FBroken clouds.17 mph57%30.04 "HgN/A
1:00 pm75 °FPartly sunny.16 mph54%30.04 "HgN/A
12:30 pm75 °FPartly sunny.16 mph54%30.07 "HgN/A
12:00 pm75 °FPartly sunny.14 mph57%30.07 "HgN/A
11:30 am73 °FScattered clouds.13 mph65%30.07 "HgN/A
10:30 am70 °FPassing clouds.14 mph69%30.07 "HgN/A
10:00 am68 °FPassing clouds.13 mph73%30.07 "HgN/A
9:00 am63 °FPassing clouds.12 mph88%30.07 "HgN/A
Weather by CustomWeather, © 2022

See weather overview